LiveATC.Net - Listen to live air traffic control over the Internet! Contact LiveATC.net for advertising information


ICAO: MMCL  IATA: CUL   Airport: Federal de Bachigualato International Airport
City: Culiacan
Country: Mexico   Continent: North America
MMCL METAR Weather: MMCL 202241Z 27010KT 10SM SKC 27/17 A2990
MMCL Flight Activity (FlightAware)
MMCL Twr/App/Center
Feed Status: DOWN
Last heard on: 2014-07-01 06:50:03 (172 days 16 hours 17 minutes ago)
MMCL Twr/App/Center Audio Archives
FacilityFrequency
Culiacan Approach119.750
Culiacan Tower118.500
Mazatlan Center124.200
Mazatlan Center124.400
Mazatlan Center128.000
Mazatlan Center128.300


NOTICE

Unauthorized use prohibited. See LiveATC.net Terms of Service


Find LiveATC Audio Streams


Airport/ARTCC Code

Frequency
(e.g., 124.400, 128.75)
Site-wide search

Browse LiveATC Feeds
LiveATC Coverage Map
Top 50 LiveATC Feeds
Bad Weather Areas

LiveATC FAQ
Offer a LiveATC Feed
Contact LiveATC.net
Press Inquiries

LiveATC on iPhone
LiveATC on Android

LiveATC Mobile
(Mobile browser)

ATC Audio Archives
Interesting Recordings

LiveATC Forums


Home Page
About LiveATC.net
Make a Donation
LiveATC Bookstore

Terms of Use
Privacy Policy

ATC/Radar Sites
U.S. ARTCC Freqs
Canadian Air Freqs

AIRMETs/SIGMETs

FAA Airport Status
Nat'l Airspace Status
Arrival Demand Charts


Server Software By:
Icecast.org
Liquidsoap

Please make a donation to help us keep growing!